This is the latest recevied weather packets stored in our database for station/object N2OCK. If no packets are shown the sender has not sent any weather packets the latest 10 day(s).
| Time | Temp. | Humidity | Pressure | Rain* | Wind** | Luminosity | Snow |
|---|---|---|---|---|---|---|---|
| 1777837524 | 14.44° C | 36% | 1010.3 hPa | 0 mm | - | 555 W/m² | - |
| 1777837223 | 13.89° C | 37% | 1010.2 hPa | 0 mm | - | 569 W/m² | - |
| 1777836921 | 13.89° C | 37% | 1010.4 hPa | 0 mm | - | 567 W/m² | - |
| 1777836616 | 13.89° C | 37% | 1010.5 hPa | 0 mm | - | 586 W/m² | - |
| 1777836312 | 13.89° C | 38% | 1010.5 hPa | 0 mm | - | 595 W/m² | - |
| 1777836008 | 13.89° C | 37% | 1010.6 hPa | 0 mm | - | 615 W/m² | - |
| 1777835705 | 13.89° C | 36% | 1010.4 hPa | 0 mm | - | 636 W/m² | - |
| 1777835402 | 13.33° C | 37% | 1010.4 hPa | 0 mm | - | 696 W/m² | - |
| 1777835099 | 13.33° C | 38% | 1010.5 hPa | 0 mm | - | 592 W/m² | - |
| 1777834796 | 13.89° C | 37% | 1010.6 hPa | 0 mm | - | 654 W/m² | - |
| 1777834492 | 13.33° C | 38% | 1010.3 hPa | 0 mm | - | 668 W/m² | - |
| 1777834192 | 13.33° C | 37% | 1010.7 hPa | 0 mm | - | 700 W/m² | - |
| 1777833888 | 13.33° C | 37% | 1010.7 hPa | 0 mm | - | 668 W/m² | - |
| 1777833585 | 12.78° C | 38% | 1010.7 hPa | 0 mm | - | 686 W/m² | - |
| 1777833281 | 13.33° C | 37% | 1010.6 hPa | 0 mm | - | 717 W/m² | - |
| 1777832978 | 12.78° C | 38% | 1010.5 hPa | 0 mm | - | 716 W/m² | - |
| 1777832677 | 12.78° C | 38% | 1010.4 hPa | 0 mm | - | 720 W/m² | - |
| 1777832374 | 12.78° C | 37% | 1010.4 hPa | 0 mm | - | 774 W/m² | - |
| 1777832071 | 12.78° C | 36% | 1010.2 hPa | 0 mm | - | 773 W/m² | - |
| 1777831767 | 12.78° C | 39% | 1010.4 hPa | 0 mm | - | 213 W/m² | - |
| 1777831466 | 12.78° C | 36% | 1010.5 hPa | 0 mm | - | 879 W/m² | - |
| 1777831162 | 12.22° C | 37% | 1010.5 hPa | 0 mm | - | 817 W/m² | - |
| 1777830860 | 12.78° C | 37% | 1010.3 hPa | 0 mm | - | 839 W/m² | - |
| 1777830556 | 13.33° C | 35% | 1010.4 hPa | 0 mm | - | 789 W/m² | - |
| 1777830255 | 12.78° C | 37% | 1010.4 hPa | 0 mm | - | 807 W/m² | - |
* Rain latest hour (hover to see other rain measurements)
** Current wind speed in m/s (hover to see current wind gust speed)